Terminal Aerodrome Forecast
Issued by NWS Kansas City/Pleasant Hill, MO

Home | Current Version | Previous Version | Text Only | Print | Product List | Glossary On
Versions: 1 2 3 4 5 6 7 8 9 10 11 12 13 14 15 16 17
000
FTUS43 KEAX 201350 AAA
TAFMCI
TAF AMD
KMCI 201350Z 2014/2112 06007KT P6SM VCTS SCT070CB BKN120
      TEMPO 2014/2015 5SM -TSRA BR SCT040CB BKN070
     FM201500 19010KT P6SM SCT120=

USA.gov is the U.S. government's official web portal to all federal, state and local government web resources and services.